AirNav   Air Wisconsin Up To $57,000 Bonus
 
 1831 users online  

17MI Grace Hospital Heliport
Detroit, Michigan, USA

GOING TO DETROIT?


FAA INFORMATION EFFECTIVE 02 JANUARY 2020

Location

FAA Identifier: 17MI
Lat/Long: 42-25-05.0100N 083-10-57.4200W
42-25.083500N 083-10.957000W
42.4180583,-83.1826167
(estimated)
Elevation: 662 ft. / 202 m (estimated)
Variation: 06W (1990)
Time zone: UTC -5 (UTC -4 during Daylight Saving Time)
Zip code: 48235

Heliport Operations

Heliport use: Private use, MEDICAL USE.
Activation date: 10/1994
Control tower: no
ARTCC: CLEVELAND CENTER
FSS: LANSING FLIGHT SERVICE STATION
Attendance: CONTINUOUS
Wind indicator: lighted
Segmented circle: no
Lights: SS-SR

Heliport Communications

WX AWOS-3 at VLL (7 nm N): 119.475 (248-288-4649)
WX ASOS at DET (8 nm E): PHONE 313-371-9696
WX ASOS at DTW (14 nm SW): 133.675 (734-955-5015)
WX ASOS at PTK (18 nm NW): 125.025 (248-886-8551)
WX ASOS at YIP (19 nm SW): 132.35 (734-961-6843)
WX AWOS-3 at ONZ (19 nm S): 119.675 (734-692-9686)

Nearby radio navigation aids

VOR radial/distance  VOR name  Freq  Var
DXOr040/14.8DETROIT VOR/DME113.4006W
SVMr091/18.2SALEM VORTAC114.3003W
YQGr309/18.7WINDSOR VOR/DME113.8006W
CRLr032/25.3CARLETON VOR/DME115.7003W

 
NDB name  Hdg/Dist  Freq  Var  ID
GROSSE ILE003/19.141907WRYS .-. -.-- ...
TECUMSEH060/38.823906WTCU - -.-. ..-

Heliport Services

Runway Information

Helipad H1

Dimensions: 25 x 25 ft. / 8 x 8 m
Surface: concrete, in good condition
Runway edge lights: PERI
PERIMETER LIGHTS
Latitude: 42-25.083500N
Longitude: 083-10.957000W
Elevation: 662.0 ft.
Traffic pattern: leftleft

Heliport Ownership and Management from official FAA records

Ownership: Privately-owned
Owner: VHS SINAI-GRACE HOSPITAL
6071 W OUTER DR
DETROIT, MI 48235
Phone (313) 966-1952
Manager: WILLIAM GILBERT
6071 W OUTER DR
DETROIT, MI 48235
Phone (313) 966-1952

Additional Remarks

A52-H1 25 FT LIGHT POLE 126 FT S.
APCH/DEP 360/180
FOR CD CTC DETROIT APCH AT 800-499-8181.

Instrument Procedures

There are no published instrument procedures at 17MI.

Some nearby airports with instrument procedures:

KVLL - Oakland/Troy Airport (7 nm N)
KDET - Coleman A Young Municipal Airport (8 nm E)
1D2 - Canton-Plymouth-Mettetal Airport (13 nm W)
KDTW - Detroit Metropolitan Wayne County Airport (14 nm SW)
KPTK - Oakland County International Airport (18 nm NW)
KYIP - Willow Run Airport (19 nm SW)
KONZ - Grosse Ile Municipal Airport (19 nm S)
KMTC - Selfridge Air National Guard Base (19 nm NE)
 
Loc | Ops | Rwys | IFR | FBO | Links
Com | Nav | Svcs | Stats | Notes
Area around 17MI (Grace Hospital Heliport)
 
Road maps at: MapQuest Bing Google
 
Aerial photo
No photo
 
Sectional chart

 
Airport distance calculator
Flying to Grace Hospital Heliport? Find the distance to fly.

From to 17MI

Sunrise and sunset
Times for 27-Jan-2020
 Local
(UTC-5)
 Zulu
(UTC)
Morning civil twilight07:2212:22
Sunrise07:5212:52
Sunset17:3922:39
Evening civil twilight18:0923:09

Current date and time
Zulu (UTC)  27-Jan-2020 22:29:25
Local (UTC-5)  27-Jan-2020 17:29:25
 
METAR
KDET 
7nm E 
272153Z 31007KT 10SM OVC018 02/M02 A2990 RMK AO2 SLP131 T00221017
KVLL 
7nm N 
272215Z AUTO 31006KT 10SM OVC015 02/00 A2992 RMK AO2 T00171002
KDTW 
13nm SW 
272153Z 29006KT 10SM OVC017 02/M01 A2991 RMK AO2 SLP134 T00221011
CYQG 
13nm SE 
272200Z AUTO 31009KT 9SM OVC019 02/M01 A2990 RMK SLP134
KPTK 
18nm NW 
272153Z 28005KT 10SM OVC013 01/M02 A2988 RMK AO2 SLP127 T00061022
KYIP 
19nm SW 
272153Z 30006KT 10SM OVC017 03/M02 A2991 RMK AO2 SLP132 T00281017
KONZ 
19nm S 
272215Z AUTO 31006KT 10SM OVC018 02/M01 A2991 RMK AO2 T00181010
TAF
KDET 
7nm E 
271739Z 2718/2818 31007KT P6SM OVC015 FM280700 29006KT P6SM OVC150
KDTW 
13nm SW 
271739Z 2718/2824 31007KT P6SM OVC015 FM280700 29006KT P6SM OVC150
CYQG 
13nm SE 
271738Z 2718/2818 31010KT P6SM OVC015 TEMPO 2718/2723 SCT015 OVC025 BECMG 2723/2801 29007KT FM281200 31008KT P6SM BKN015 RMK FCST BASED ON AUTO OBS. NXT FCST BY 280000Z
KPTK 
18nm NW 
271739Z 2718/2818 33007KT P6SM OVC015 FM280700 29006KT P6SM OVC150
NOTAMs
Click for the latest NOTAMs
NOTAMs are issued by the DoD/FAA and will open in a separate window not controlled by AirNav.

 

 
 

Would you like to see your business listed on this page?

 If your business provides an interesting product or service to pilots, flight crews, aircraft, or users of the Grace Hospital Heliport, you should consider listing it here.  To start the listing process, click on the button below
 
Add a business
 

Other Pages about Grace Hospital Heliport

Update a link
 
Copyright © AirNav, LLC. All rights reserved. Privacy Policy  Contact